Flight Track Log - Related Links

Times and Time Zones

All times are in EST time to prevent confusion due to time zone crossing. See the TRS244 flight status page for this flight to view local times or setup timezone preferences in your user account.

Time Position Orientation Groundspeed Altitude Reporting Facility
EST Latitude Longitude Course Direction KTS MPH feet Rate Location/Type
Tue 08:11:43 AM 39.7000 -86.3167 270° West 162 186 1,700  Level Indianapolis TRACON
Tue 08:11:55 AM 39.7000 -86.3333 270° West 164 189 2,200 1,643 Climbing Indianapolis TRACON
Tue 08:13:07 AM 39.6464 -86.3489 193° South 223 257 4,000 1,478 Climbing Indianapolis Center
Tue 08:14:09 AM 39.5808 -86.3442 177° South 232 267 5,500 1,887 Climbing Indianapolis Center
Tue 08:15:11 AM 39.4958 -86.3306 173° South 253 291 7,900 2,439 Climbing Indianapolis Center
Tue 08:16:12 AM 39.4189 -86.3164 172° South 272 313 10,500 2,000 Climbing Indianapolis Center
Tue 08:17:14 AM 39.3381 -86.3033 173° South 287 330 12,000 1,548 Climbing Indianapolis Center
Tue 08:18:16 AM 39.2469 -86.2872 172° South 319 367 13,700 1,512 Climbing Indianapolis Center
Tue 08:19:17 AM 39.1464 -86.2697 172° South 354 407 15,100 1,756 Climbing Indianapolis Center
Tue 08:20:19 AM 39.0417 -86.2528 173° South 375 432 17,300 1,645 Climbing Indianapolis Center
Tue 08:21:21 AM 38.9339 -86.2517 180° South 385 443 18,500 1,463 Climbing Indianapolis Center
Tue 08:22:22 AM 38.8069 -86.2589 183° South 400 460 20,300 1,902 Climbing Indianapolis Center
Tue 08:23:24 AM 38.6858 -86.2453 175° South 424 488 22,400 1,355 Climbing Indianapolis Center
Tue 08:24:26 AM 38.5708 -86.1961 162° South 428 493 23,100 976 Climbing Indianapolis Center
Tue 08:25:27 AM 38.4700 -86.0908 141° Southeast 460 529 24,400 1,220 Climbing Indianapolis Center
Tue 08:26:29 AM 38.3789 -85.9631 132° Southeast 478 550 25,600 1,065 Climbing Indianapolis Center
Tue 08:27:31 AM 38.2639 -85.8808 151° Southeast 477 549 26,600 1,268 Climbing Indianapolis Center
Tue 08:28:32 AM 38.1136 -85.8303 165° South 465 535 28,200 1,415 Climbing Indianapolis Center
Tue 08:29:34 AM 37.9908 -85.7897 165° South 459 528 29,500 1,306 Climbing Indianapolis Center
Tue 08:30:36 AM 37.8669 -85.7489 165° South 459 528 30,900 1,258 Climbing Indianapolis Center
Tue 08:31:38 AM 37.7447 -85.7092 166° South 455 524 32,100 1,024 Climbing Indianapolis Center
Tue 08:32:39 AM 37.6211 -85.6700 166° South 455 524 33,000 439 Climbing Indianapolis Center
Tue 08:33:41 AM 37.5003 -85.6294 165° South 452 520 33,000  Level Indianapolis Center
Tue 08:34:43 AM 37.3778 -85.5894 165° South 450 518 33,000  Level Indianapolis Center
Tue 08:35:44 AM 37.2472 -85.5478 166° South 446 513 33,000  Level Indianapolis Center
Tue 08:36:46 AM 37.1322 -85.5111 166° South 446 513 33,000  Level Indianapolis Center
Tue 08:37:47 AM 37.0056 -85.4700 165° South 448 516 33,000  Level Indianapolis Center
Tue 08:38:49 AM 36.8853 -85.4306 165° South 448 516 33,000  Level Indianapolis Center
Tue 08:39:51 AM 36.7636 -85.3922 166° South 449 517 33,000  Level Indianapolis Center
Tue 08:40:52 AM 36.6186 -85.3464 166° South 449 517 33,000  Level Indianapolis Center
Tue 08:41:54 AM 36.4978 -85.3089 166° South 449 517 33,000  Level Indianapolis Center
Tue 08:42:56 AM 36.3781 -85.2692 165° South 449 517 33,000  Level Indianapolis Center
Tue 08:43:57 AM 36.2572 -85.2328 166° South 448 516 33,000  Level Indianapolis Center
Tue 08:45:10 AM 36.1133 -85.1903 167° South 448 516 33,000  Level Atlanta Center
Tue 08:46:10 AM 35.9928 -85.1525 166° South 448 516 33,000  Level Atlanta Center
Tue 08:47:02 AM 35.8775 -85.1131 165° South 449 517 33,000  Level Indianapolis Center
Tue 08:48:04 AM 35.7564 -85.0761 166° South 448 516 33,000  Level Indianapolis Center
Tue 08:49:05 AM 35.6364 -85.0389 166° South 448 516 33,000  Level Indianapolis Center
Tue 08:50:07 AM 35.5178 -85.0017 166° South 447 514 33,000  Level Indianapolis Center
Tue 08:51:10 AM 35.3914 -84.9661 167° South 448 516 33,000  Level Atlanta Center
Tue 08:52:10 AM 35.2706 -84.9292 166° South 448 516 33,000  Level Atlanta Center
Tue 08:53:10 AM 35.1500 -84.8922 166° South 448 516 33,000  Level Atlanta Center
Tue 08:54:10 AM 35.0292 -84.8556 166° South 448 516 33,000  Level Atlanta Center
Tue 08:55:10 AM 34.9106 -84.8189 166° South 448 516 33,000  Level Atlanta Center
Tue 08:56:10 AM 34.7875 -84.7822 166° South 448 516 33,000  Level Atlanta Center
Tue 08:57:10 AM 34.6583 -84.7408 165° South 443 510 33,000  Level Atlanta Center
Tue 08:58:10 AM 34.5375 -84.7019 165° South 443 510 33,000  Level Atlanta Center
Tue 08:59:10 AM 34.4167 -84.6683 167° South 448 516 33,000  Level Atlanta Center
Tue 09:00:10 AM 34.2958 -84.6322 166° South 448 516 33,000  Level Atlanta Center
Tue 09:01:10 AM 34.1750 -84.5961 166° South 448 516 33,000  Level Atlanta Center
Tue 09:02:10 AM 34.0603 -84.5653 167° South 454 522 33,000  Level Atlanta Center
Tue 09:03:10 AM 33.9394 -84.5294 166° South 454 522 33,000  Level Atlanta Center
Tue 09:04:10 AM 33.8164 -84.4939 167° South 459 528 33,000  Level Atlanta Center
Tue 09:05:10 AM 33.6914 -84.4583 167° South 454 522 33,000  Level Atlanta Center
Tue 09:06:10 AM 33.5578 -84.4078 162° South 455 524 33,000  Level Atlanta Center
Tue 09:07:10 AM 33.4347 -84.3575 161° South 464 534 33,000  Level Atlanta Center
Tue 09:08:10 AM 33.3139 -84.3097 162° South 464 534 33,000  Level Atlanta Center
Tue 09:09:10 AM 33.2056 -84.2622 160° South 464 534 33,000  Level Atlanta Center
Tue 09:10:10 AM 33.0844 -84.2150 162° South 464 534 33,000  Level Atlanta Center
Tue 09:11:10 AM 32.9633 -84.1650 161° South 464 534 33,000  Level Atlanta Center
Tue 09:12:10 AM 32.8444 -84.1106 159° South 464 534 33,000  Level Atlanta Center
Tue 09:13:10 AM 32.7214 -84.0611 161° South 464 534 33,000  Level Atlanta Center
Tue 09:14:10 AM 32.5983 -84.0092 160° South 464 534 33,000  Level Atlanta Center
Tue 09:15:10 AM 32.4750 -83.9600 161° South 464 534 33,000  Level Atlanta Center
Tue 09:16:10 AM 32.3497 -83.9086 161° South 464 534 33,000  Level Atlanta Center
Tue 09:17:10 AM 32.2286 -83.8597 161° South 464 534 33,000  Level Atlanta Center
Tue 09:18:10 AM 32.1075 -83.8108 161° South 464 534 33,000  Level Atlanta Center
Tue 09:19:25 AM 31.9383 -83.7397 160° South 497 572 33,000  Level Jacksonville Center
Tue 09:20:25 AM 31.8364 -83.6703 150° Southeast 482 555 33,000  Level Jacksonville Center
Tue 09:21:25 AM 31.7178 -83.5886 150° Southeast 476 548 33,000  Level Jacksonville Center
Tue 09:22:25 AM 31.5992 -83.5144 152° Southeast 476 548 33,000  Level Jacksonville Center
Tue 09:23:25 AM 31.4847 -83.4383 150° Southeast 476 548 33,000  Level Jacksonville Center
Tue 09:24:25 AM 31.3703 -83.3622 150° Southeast 481 554 33,000  Level Jacksonville Center
Tue 09:25:25 AM 31.2556 -83.2886 151° Southeast 481 554 33,000  Level Jacksonville Center
Tue 09:26:25 AM 31.1367 -83.2081 150° Southeast 481 554 33,000 -300 Level Jacksonville Center
Tue 09:27:25 AM 31.0222 -83.1350 151° Southeast 481 554 32,400 -1,700 Descending Jacksonville Center
Tue 09:28:25 AM 30.9053 -83.0572 150° Southeast 481 554 29,600 -2,500 Descending Jacksonville Center
Tue 09:29:25 AM 30.7925 -82.9844 151° Southeast 481 554 27,400 -1,300 Descending Jacksonville Center
Tue 09:30:25 AM 30.6800 -82.9142 152° Southeast 476 548 27,000 -250 Descending Jacksonville Center
Tue 09:31:25 AM 30.5692 -82.8394 150° Southeast 470 541 26,900 -250 Descending Jacksonville Center
Tue 09:32:25 AM 30.4586 -82.7697 151° Southeast 460 529 26,500 -900 Descending Jacksonville Center
Tue 09:33:25 AM 30.3478 -82.6953 150° Southeast 460 529 25,100 -750 Descending Jacksonville Center
Tue 09:34:25 AM 30.2411 -82.6256 151° Southeast 450 518 25,000 -50 Descending Jacksonville Center
Tue 09:35:25 AM 30.1344 -82.5586 152° Southeast 444 511 25,000  Level Jacksonville Center
Tue 09:36:25 AM 30.0278 -82.4919 152° Southeast 439 505 25,000  Level Jacksonville Center
Tue 09:37:25 AM 29.9067 -82.4278 155° Southeast 439 505 25,000  Level Jacksonville Center
Tue 09:38:25 AM 29.7958 -82.3733 157° South 439 505 25,000 -550 Level Jacksonville Center
Tue 09:39:25 AM 29.6847 -82.3189 157° South 434 499 23,900 -1,300 Descending Jacksonville Center
Tue 09:40:25 AM 29.5739 -82.2644 157° South 434 499 22,400 -1,450 Descending Jacksonville Center
Tue 09:41:25 AM 29.4672 -82.2128 157° South 428 493 21,000 -1,500 Descending Jacksonville Center
Tue 09:42:25 AM 29.3667 -82.1633 157° South 415 478 19,400 -1,550 Descending Jacksonville Center
Tue 09:43:25 AM 29.2664 -82.1214 160° South 405 466 17,900 -1,350 Descending Jacksonville Center
Tue 09:44:25 AM 29.1700 -82.0744 157° South 387 445 16,700 -1,350 Descending Jacksonville Center
Tue 09:45:25 AM 29.0736 -82.0300 158° South 382 440 15,200 -1,900 Descending Jacksonville Center
Tue 09:46:25 AM 28.9794 -81.9811 156° South 371 427 12,900 -2,000 Descending Jacksonville Center
Tue 09:47:25 AM 28.8914 -81.9344 155° Southeast 376 433 11,200 -1,389 Descending Jacksonville Center
Tue 09:48:13 AM 28.8333 -81.8500 128° Southeast 326 375 10,400 -1,176 Descending Orlando TRACON
Tue 09:49:07 AM 28.8000 -81.7833 120° Southeast 315 362 9,200 -737 Descending Orlando TRACON
Tue 09:50:07 AM 28.7500 -81.7000 124° Southeast 298 343 9,000 -87 Descending Orlando TRACON
Tue 09:51:25 AM 28.7000 -81.6000 120° Southeast 303 349 9,000  Level Orlando TRACON
Tue 09:52:25 AM 28.6500 -81.5167 124° Southeast 307 353 9,000  Level Orlando TRACON
Tue 09:53:19 AM 28.6167 -81.4500 120° Southeast 252 290 9,000 -105 Level Orlando TRACON
Tue 09:54:19 AM 28.5500 -81.4333 168° South 227 261 8,800 -789 Descending Orlando TRACON
Tue 09:55:13 AM 28.5000 -81.4167 164° South 231 266 7,500 -1,368 Descending Orlando TRACON
Tue 09:56:13 AM 28.4333 -81.4167 180° South 222 255 6,200 -1,316 Descending Orlando TRACON
Tue 09:57:07 AM 28.3833 -81.4167 180° South 222 255 5,000 -835 Descending Orlando TRACON
Tue 09:58:08 AM 28.3167 -81.4167 180° South 200 230 4,600 -545 Descending Orlando TRACON
Tue 09:59:08 AM 28.2667 -81.4167 180° South 207 238 3,900 -850 Descending Orlando TRACON
Tue 10:00:08 AM 28.2167 -81.4000 164° South 199 229 2,900 -1,100 Descending Orlando TRACON
Tue 10:01:08 AM 28.2000 -81.3333 106° East 175 201 1,700 -591 Descending Orlando TRACON
Tue 10:02:20 AM 28.2500 -81.3167 16° North 180 207 1,600 -43 Descending Orlando TRACON
Tue 10:03:26 AM 28.3000 -81.3167 360° North 167 192 1,600 -53 Level Orlando TRACON
Tue 10:04:14 AM 28.3500 -81.3167 360° North 166 191 1,500 -556 Descending Orlando TRACON
Tue 10:05:14 AM 28.3833 -81.3167 360° North 144 166 600 -900 Descending Orlando TRACON
Tue 10:07:00 AM 28.4167 -81.3000 24° Northeast  Level FlightAware Approximate

Login

Don't have an account? Register now (free) for customized features, flight alerts, and more!